sensor_id;sensor_type;location;lat;lon;timestamp;P1;durP1;ratioP1;P2;durP2;ratioP2
28459;SDS011;32528;45.712;9.192;2022-09-01T00:01:18;23.92;;;8.30;;
28459;SDS011;32528;45.712;9.192;2022-09-01T00:03:27;13.50;;;8.00;;
28459;SDS011;32528;45.712;9.192;2022-09-01T00:05:28;13.52;;;8.02;;
28459;SDS011;32528;45.712;9.192;2022-09-01T00:07:31;11.07;;;7.07;;
28459;SDS011;32528;45.712;9.192;2022-09-01T00:09:34;13.73;;;7.93;;
28459;SDS011;32528;45.712;9.192;2022-09-01T00:11:35;11.15;;;7.57;;
28459;SDS011;32528;45.712;9.192;2022-09-01T00:13:37;12.45;;;7.45;;
28459;SDS011;32528;45.712;9.192;2022-09-01T00:15:38;13.38;;;8.27;;
28459;SDS011;32528;45.712;9.192;2022-09-01T00:17:38;15.45;;;7.55;;
28459;SDS011;32528;45.712;9.192;2022-09-01T00:19:39;15.07;;;7.95;;
28459;SDS011;32528;45.712;9.192;2022-09-01T00:21:41;24.15;;;9.38;;
28459;SDS011;32528;45.712;9.192;2022-09-01T00:23:43;9.13;;;6.97;;
28459;SDS011;32528;45.712;9.192;2022-09-01T00:27:45;14.75;;;7.65;;
28459;SDS011;32528;45.712;9.192;2022-09-01T00:29:48;13.55;;;7.68;;
28459;SDS011;32528;45.712;9.192;2022-09-01T00:31:48;16.25;;;9.10;;
28459;SDS011;32528;45.712;9.192;2022-09-01T00:33:50;12.32;;;8.25;;
28459;SDS011;32528;45.712;9.192;2022-09-01T00:35:51;14.38;;;8.80;;
28459;SDS011;32528;45.712;9.192;2022-09-01T00:37:52;12.57;;;8.07;;
28459;SDS011;32528;45.712;9.192;2022-09-01T00:39:52;11.05;;;8.50;;
28459;SDS011;32528;45.712;9.192;2022-09-01T00:43:55;15.00;;;7.85;;
28459;SDS011;32528;45.712;9.192;2022-09-01T00:46:01;12.27;;;7.78;;
28459;SDS011;32528;45.712;9.192;2022-09-01T00:50:06;9.93;;;7.18;;
28459;SDS011;32528;45.712;9.192;2022-09-01T00:54:17;13.50;;;8.25;;
28459;SDS011;32528;45.712;9.192;2022-09-01T00:58:21;16.23;;;8.30;;
28459;SDS011;32528;45.712;9.192;2022-09-01T01:00:24;11.43;;;7.78;;
28459;SDS011;32528;45.712;9.192;2022-09-01T01:04:27;12.95;;;7.72;;
28459;SDS011;32528;45.712;9.192;2022-09-01T01:06:29;10.82;;;8.10;;
28459;SDS011;32528;45.712;9.192;2022-09-01T01:08:32;10.85;;;7.38;;
28459;SDS011;32528;45.712;9.192;2022-09-01T01:10:37;13.63;;;9.65;;
28459;SDS011;32528;45.712;9.192;2022-09-01T01:12:41;10.50;;;8.00;;
28459;SDS011;32528;45.712;9.192;2022-09-01T01:14:46;11.43;;;7.75;;
28459;SDS011;32528;45.712;9.192;2022-09-01T01:16:52;13.75;;;8.93;;
28459;SDS011;32528;45.712;9.192;2022-09-01T01:18:54;9.27;;;6.40;;
28459;SDS011;32528;45.712;9.192;2022-09-01T01:21:05;13.50;;;8.75;;
28459;SDS011;32528;45.712;9.192;2022-09-01T01:23:38;12.88;;;9.05;;
28459;SDS011;32528;45.712;9.192;2022-09-01T01:25:44;10.93;;;8.65;;
28459;SDS011;32528;45.712;9.192;2022-09-01T01:27:50;11.52;;;7.30;;
28459;SDS011;32528;45.712;9.192;2022-09-01T01:29:52;10.77;;;6.57;;
28459;SDS011;32528;45.712;9.192;2022-09-01T01:31:54;12.05;;;8.40;;
28459;SDS011;32528;45.712;9.192;2022-09-01T01:33:55;11.20;;;8.05;;
28459;SDS011;32528;45.712;9.192;2022-09-01T01:35:57;10.30;;;6.68;;
28459;SDS011;32528;45.712;9.192;2022-09-01T01:38:01;12.18;;;8.30;;
28459;SDS011;32528;45.712;9.192;2022-09-01T01:40:07;10.38;;;7.15;;
28459;SDS011;32528;45.712;9.192;2022-09-01T01:42:14;13.43;;;6.57;;
28459;SDS011;32528;45.712;9.192;2022-09-01T01:46:18;10.40;;;7.93;;
28459;SDS011;32528;45.712;9.192;2022-09-01T01:48:20;12.70;;;8.45;;
28459;SDS011;32528;45.712;9.192;2022-09-01T01:50:27;9.75;;;7.32;;
28459;SDS011;32528;45.712;9.192;2022-09-01T01:52:32;19.10;;;7.32;;
28459;SDS011;32528;45.712;9.192;2022-09-01T01:54:33;11.15;;;7.68;;
28459;SDS011;32528;45.712;9.192;2022-09-01T01:56:34;13.10;;;8.13;;
28459;SDS011;32528;45.712;9.192;2022-09-01T01:58:38;11.45;;;7.40;;
28459;SDS011;32528;45.712;9.192;2022-09-01T02:00:44;13.10;;;8.75;;
28459;SDS011;32528;45.712;9.192;2022-09-01T02:02:48;11.48;;;6.57;;
28459;SDS011;32528;45.712;9.192;2022-09-01T02:04:53;12.32;;;8.10;;
28459;SDS011;32528;45.712;9.192;2022-09-01T02:06:54;11.07;;;7.40;;
28459;SDS011;32528;45.712;9.192;2022-09-01T02:08:58;13.27;;;8.15;;
28459;SDS011;32528;45.712;9.192;2022-09-01T02:11:03;9.82;;;6.97;;
28459;SDS011;32528;45.712;9.192;2022-09-01T02:13:05;14.00;;;9.30;;
28459;SDS011;32528;45.712;9.192;2022-09-01T02:15:06;12.63;;;8.15;;
28459;SDS011;32528;45.712;9.192;2022-09-01T02:17:08;14.10;;;7.53;;
28459;SDS011;32528;45.712;9.192;2022-09-01T02:19:09;11.57;;;8.02;;
28459;SDS011;32528;45.712;9.192;2022-09-01T02:21:12;11.02;;;7.25;;
28459;SDS011;32528;45.712;9.192;2022-09-01T02:23:18;11.98;;;7.50;;
28459;SDS011;32528;45.712;9.192;2022-09-01T02:25:23;13.88;;;7.22;;
28459;SDS011;32528;45.712;9.192;2022-09-01T02:27:25;12.52;;;7.70;;
28459;SDS011;32528;45.712;9.192;2022-09-01T02:29:28;12.23;;;6.10;;
28459;SDS011;32528;45.712;9.192;2022-09-01T02:31:30;10.32;;;7.28;;
28459;SDS011;32528;45.712;9.192;2022-09-01T02:33:35;21.05;;;9.05;;
28459;SDS011;32528;45.712;9.192;2022-09-01T02:35:40;10.15;;;6.80;;
28459;SDS011;32528;45.712;9.192;2022-09-01T02:37:42;9.25;;;5.40;;
28459;SDS011;32528;45.712;9.192;2022-09-01T02:39:48;10.27;;;7.18;;
28459;SDS011;32528;45.712;9.192;2022-09-01T02:41:49;11.68;;;7.55;;
28459;SDS011;32528;45.712;9.192;2022-09-01T02:43:56;10.45;;;6.70;;
28459;SDS011;32528;45.712;9.192;2022-09-01T02:45:58;10.18;;;6.95;;
28459;SDS011;32528;45.712;9.192;2022-09-01T02:48:00;9.52;;;6.43;;
28459;SDS011;32528;45.712;9.192;2022-09-01T02:50:01;9.70;;;6.78;;
28459;SDS011;32528;45.712;9.192;2022-09-01T02:52:03;12.93;;;6.43;;
28459;SDS011;32528;45.712;9.192;2022-09-01T02:54:04;10.27;;;6.80;;
28459;SDS011;32528;45.712;9.192;2022-09-01T02:56:06;8.95;;;5.72;;
28459;SDS011;32528;45.712;9.192;2022-09-01T02:58:11;8.55;;;5.25;;
28459;SDS011;32528;45.712;9.192;2022-09-01T03:00:17;10.07;;;5.78;;
28459;SDS011;32528;45.712;9.192;2022-09-01T03:02:28;17.80;;;6.47;;
28459;SDS011;32528;45.712;9.192;2022-09-01T03:04:29;10.98;;;6.63;;
28459;SDS011;32528;45.712;9.192;2022-09-01T03:06:34;10.48;;;6.00;;
28459;SDS011;32528;45.712;9.192;2022-09-01T03:08:37;7.15;;;4.72;;
28459;SDS011;32528;45.712;9.192;2022-09-01T03:10:40;10.40;;;6.57;;
28459;SDS011;32528;45.712;9.192;2022-09-01T03:12:42;9.68;;;5.63;;
28459;SDS011;32528;45.712;9.192;2022-09-01T03:14:43;8.43;;;6.05;;
28459;SDS011;32528;45.712;9.192;2022-09-01T03:16:43;9.02;;;6.30;;
28459;SDS011;32528;45.712;9.192;2022-09-01T03:18:44;14.85;;;6.10;;
28459;SDS011;32528;45.712;9.192;2022-09-01T03:20:45;8.25;;;5.90;;
28459;SDS011;32528;45.712;9.192;2022-09-01T03:22:48;9.77;;;6.38;;
28459;SDS011;32528;45.712;9.192;2022-09-01T03:24:49;10.18;;;6.28;;
28459;SDS011;32528;45.712;9.192;2022-09-01T03:26:50;17.42;;;6.75;;
28459;SDS011;32528;45.712;9.192;2022-09-01T03:28:52;12.15;;;6.32;;
28459;SDS011;32528;45.712;9.192;2022-09-01T03:30:54;11.25;;;6.18;;
28459;SDS011;32528;45.712;9.192;2022-09-01T03:32:57;10.57;;;5.72;;
28459;SDS011;32528;45.712;9.192;2022-09-01T03:34:58;10.43;;;7.00;;
28459;SDS011;32528;45.712;9.192;2022-09-01T03:36:59;9.50;;;6.50;;
28459;SDS011;32528;45.712;9.192;2022-09-01T03:39:02;9.40;;;6.78;;
28459;SDS011;32528;45.712;9.192;2022-09-01T03:41:05;8.15;;;5.78;;
28459;SDS011;32528;45.712;9.192;2022-09-01T03:43:06;12.68;;;6.70;;
28459;SDS011;32528;45.712;9.192;2022-09-01T03:45:10;9.40;;;6.30;;
28459;SDS011;32528;45.712;9.192;2022-09-01T03:47:15;8.85;;;5.85;;
28459;SDS011;32528;45.712;9.192;2022-09-01T03:49:17;10.02;;;6.40;;
28459;SDS011;32528;45.712;9.192;2022-09-01T03:51:25;8.95;;;5.82;;
28459;SDS011;32528;45.712;9.192;2022-09-01T03:53:26;8.48;;;6.07;;
28459;SDS011;32528;45.712;9.192;2022-09-01T03:55:31;7.60;;;5.68;;
28459;SDS011;32528;45.712;9.192;2022-09-01T03:57:33;8.70;;;6.03;;
28459;SDS011;32528;45.712;9.192;2022-09-01T03:59:36;13.57;;;6.63;;
28459;SDS011;32528;45.712;9.192;2022-09-01T04:01:43;9.77;;;6.45;;
28459;SDS011;32528;45.712;9.192;2022-09-01T04:03:45;7.90;;;5.57;;
28459;SDS011;32528;45.712;9.192;2022-09-01T04:05:50;12.02;;;6.95;;
28459;SDS011;32528;45.712;9.192;2022-09-01T04:07:52;23.98;;;10.00;;
28459;SDS011;32528;45.712;9.192;2022-09-01T04:09:54;8.10;;;6.18;;
28459;SDS011;32528;45.712;9.192;2022-09-01T04:11:55;11.50;;;6.28;;
28459;SDS011;32528;45.712;9.192;2022-09-01T04:13:57;13.90;;;7.05;;
28459;SDS011;32528;45.712;9.192;2022-09-01T04:15:58;11.25;;;6.45;;
28459;SDS011;32528;45.712;9.192;2022-09-01T04:17:59;9.70;;;5.38;;
28459;SDS011;32528;45.712;9.192;2022-09-01T04:20:10;11.65;;;5.40;;
28459;SDS011;32528;45.712;9.192;2022-09-01T04:22:10;11.60;;;6.57;;
28459;SDS011;32528;45.712;9.192;2022-09-01T04:24:15;9.63;;;6.20;;
28459;SDS011;32528;45.712;9.192;2022-09-01T04:26:18;11.05;;;6.63;;
28459;SDS011;32528;45.712;9.192;2022-09-01T04:28:24;15.20;;;7.05;;
28459;SDS011;32528;45.712;9.192;2022-09-01T04:30:30;14.95;;;6.55;;
28459;SDS011;32528;45.712;9.192;2022-09-01T04:32:33;9.85;;;6.03;;
28459;SDS011;32528;45.712;9.192;2022-09-01T04:34:37;9.57;;;6.35;;
28459;SDS011;32528;45.712;9.192;2022-09-01T04:36:40;9.80;;;6.53;;
28459;SDS011;32528;45.712;9.192;2022-09-01T04:38:44;12.23;;;6.65;;
28459;SDS011;32528;45.712;9.192;2022-09-01T04:40:53;10.32;;;7.28;;
28459;SDS011;32528;45.712;9.192;2022-09-01T04:42:57;9.57;;;6.43;;
28459;SDS011;32528;45.712;9.192;2022-09-01T04:44:58;8.82;;;6.25;;
28459;SDS011;32528;45.712;9.192;2022-09-01T04:47:01;13.23;;;7.40;;
28459;SDS011;32528;45.712;9.192;2022-09-01T04:49:02;8.85;;;6.13;;
28459;SDS011;32528;45.712;9.192;2022-09-01T04:51:13;10.57;;;7.07;;
28459;SDS011;32528;45.712;9.192;2022-09-01T04:53:27;10.20;;;6.95;;
28459;SDS011;32528;45.712;9.192;2022-09-01T04:55:29;13.93;;;6.53;;
28459;SDS011;32528;45.712;9.192;2022-09-01T04:57:30;10.32;;;6.97;;
28459;SDS011;32528;45.712;9.192;2022-09-01T04:59:30;16.50;;;7.40;;
28459;SDS011;32528;45.712;9.192;2022-09-01T05:01:34;12.50;;;7.25;;
28459;SDS011;32528;45.712;9.192;2022-09-01T05:03:43;12.18;;;6.85;;
28459;SDS011;32528;45.712;9.192;2022-09-01T05:06:15;13.50;;;6.82;;
28459;SDS011;32528;45.712;9.192;2022-09-01T05:08:22;11.93;;;6.93;;
28459;SDS011;32528;45.712;9.192;2022-09-01T05:10:23;10.77;;;6.22;;
28459;SDS011;32528;45.712;9.192;2022-09-01T05:12:43;13.40;;;6.97;;
28459;SDS011;32528;45.712;9.192;2022-09-01T05:14:45;11.90;;;6.95;;
28459;SDS011;32528;45.712;9.192;2022-09-01T05:16:49;10.68;;;6.65;;
28459;SDS011;32528;45.712;9.192;2022-09-01T05:18:50;11.77;;;7.35;;
28459;SDS011;32528;45.712;9.192;2022-09-01T05:20:56;16.67;;;6.70;;
28459;SDS011;32528;45.712;9.192;2022-09-01T05:22:57;12.05;;;7.25;;
28459;SDS011;32528;45.712;9.192;2022-09-01T05:24:58;13.50;;;8.68;;
28459;SDS011;32528;45.712;9.192;2022-09-01T05:27:11;11.05;;;6.65;;
28459;SDS011;32528;45.712;9.192;2022-09-01T05:29:14;11.68;;;7.10;;
28459;SDS011;32528;45.712;9.192;2022-09-01T05:31:15;9.70;;;7.35;;
28459;SDS011;32528;45.712;9.192;2022-09-01T05:33:19;9.80;;;6.75;;
28459;SDS011;32528;45.712;9.192;2022-09-01T05:35:22;13.05;;;7.78;;
28459;SDS011;32528;45.712;9.192;2022-09-01T05:37:25;14.90;;;7.28;;
28459;SDS011;32528;45.712;9.192;2022-09-01T05:39:28;21.48;;;8.82;;
28459;SDS011;32528;45.712;9.192;2022-09-01T05:41:29;15.88;;;7.82;;
28459;SDS011;32528;45.712;9.192;2022-09-01T05:43:33;18.00;;;10.50;;
28459;SDS011;32528;45.712;9.192;2022-09-01T05:45:35;16.67;;;8.40;;
28459;SDS011;32528;45.712;9.192;2022-09-01T05:47:37;28.35;;;8.98;;
28459;SDS011;32528;45.712;9.192;2022-09-01T05:49:38;13.45;;;9.32;;
28459;SDS011;32528;45.712;9.192;2022-09-01T05:51:42;14.23;;;8.70;;
28459;SDS011;32528;45.712;9.192;2022-09-01T05:53:53;12.13;;;7.90;;
28459;SDS011;32528;45.712;9.192;2022-09-01T05:55:58;12.85;;;8.43;;
28459;SDS011;32528;45.712;9.192;2022-09-01T05:58:05;17.45;;;10.43;;
28459;SDS011;32528;45.712;9.192;2022-09-01T06:00:07;17.48;;;8.85;;
28459;SDS011;32528;45.712;9.192;2022-09-01T06:02:12;13.77;;;9.00;;
28459;SDS011;32528;45.712;9.192;2022-09-01T06:04:14;13.85;;;9.07;;
28459;SDS011;32528;45.712;9.192;2022-09-01T06:06:16;13.35;;;7.43;;
28459;SDS011;32528;45.712;9.192;2022-09-01T06:08:19;18.13;;;8.10;;
28459;SDS011;32528;45.712;9.192;2022-09-01T06:10:24;14.65;;;8.00;;
28459;SDS011;32528;45.712;9.192;2022-09-01T06:12:26;12.20;;;8.65;;
28459;SDS011;32528;45.712;9.192;2022-09-01T06:14:28;14.20;;;8.63;;
28459;SDS011;32528;45.712;9.192;2022-09-01T06:16:29;12.27;;;8.75;;
28459;SDS011;32528;45.712;9.192;2022-09-01T06:18:31;11.95;;;7.60;;
28459;SDS011;32528;45.712;9.192;2022-09-01T06:20:33;11.10;;;8.68;;
28459;SDS011;32528;45.712;9.192;2022-09-01T06:22:39;11.43;;;8.27;;
28459;SDS011;32528;45.712;9.192;2022-09-01T06:24:40;12.02;;;8.75;;
28459;SDS011;32528;45.712;9.192;2022-09-01T06:26:41;13.55;;;8.23;;
28459;SDS011;32528;45.712;9.192;2022-09-01T06:28:43;11.20;;;7.57;;
28459;SDS011;32528;45.712;9.192;2022-09-01T06:30:44;11.52;;;8.00;;
28459;SDS011;32528;45.712;9.192;2022-09-01T06:32:47;13.00;;;8.25;;
28459;SDS011;32528;45.712;9.192;2022-09-01T06:34:49;17.98;;;8.85;;
28459;SDS011;32528;45.712;9.192;2022-09-01T06:36:50;17.30;;;9.32;;
28459;SDS011;32528;45.712;9.192;2022-09-01T06:38:53;16.63;;;9.68;;
28459;SDS011;32528;45.712;9.192;2022-09-01T06:41:00;13.95;;;8.20;;
28459;SDS011;32528;45.712;9.192;2022-09-01T06:43:04;12.38;;;9.23;;
28459;SDS011;32528;45.712;9.192;2022-09-01T06:45:08;16.77;;;8.88;;
28459;SDS011;32528;45.712;9.192;2022-09-01T06:47:09;12.90;;;8.70;;
28459;SDS011;32528;45.712;9.192;2022-09-01T06:49:11;14.23;;;7.95;;
28459;SDS011;32528;45.712;9.192;2022-09-01T06:51:13;14.10;;;9.38;;
28459;SDS011;32528;45.712;9.192;2022-09-01T06:53:15;16.70;;;10.02;;
28459;SDS011;32528;45.712;9.192;2022-09-01T06:55:20;23.70;;;10.68;;
28459;SDS011;32528;45.712;9.192;2022-09-01T06:57:21;18.92;;;10.90;;
28459;SDS011;32528;45.712;9.192;2022-09-01T06:59:26;15.35;;;9.57;;
28459;SDS011;32528;45.712;9.192;2022-09-01T07:01:31;20.35;;;9.23;;
28459;SDS011;32528;45.712;9.192;2022-09-01T07:03:33;11.93;;;9.43;;
28459;SDS011;32528;45.712;9.192;2022-09-01T07:05:54;12.70;;;7.90;;
28459;SDS011;32528;45.712;9.192;2022-09-01T07:08:09;18.15;;;9.77;;
28459;SDS011;32528;45.712;9.192;2022-09-01T07:10:40;15.47;;;9.50;;
28459;SDS011;32528;45.712;9.192;2022-09-01T07:12:51;19.92;;;10.18;;
28459;SDS011;32528;45.712;9.192;2022-09-01T07:14:56;13.50;;;9.18;;
28459;SDS011;32528;45.712;9.192;2022-09-01T07:16:59;12.73;;;9.10;;
28459;SDS011;32528;45.712;9.192;2022-09-01T07:19:01;12.45;;;8.23;;
28459;SDS011;32528;45.712;9.192;2022-09-01T07:21:05;19.48;;;8.52;;
28459;SDS011;32528;45.712;9.192;2022-09-01T07:23:08;13.15;;;7.45;;
28459;SDS011;32528;45.712;9.192;2022-09-01T07:25:12;12.55;;;7.93;;
28459;SDS011;32528;45.712;9.192;2022-09-01T07:27:42;16.30;;;8.10;;
28459;SDS011;32528;45.712;9.192;2022-09-01T07:29:50;13.07;;;7.28;;
28459;SDS011;32528;45.712;9.192;2022-09-01T07:31:54;14.73;;;8.13;;
28459;SDS011;32528;45.712;9.192;2022-09-01T07:33:57;13.75;;;6.80;;
28459;SDS011;32528;45.712;9.192;2022-09-01T07:36:00;9.75;;;6.70;;
28459;SDS011;32528;45.712;9.192;2022-09-01T07:38:07;12.82;;;7.43;;
28459;SDS011;32528;45.712;9.192;2022-09-01T07:40:11;10.80;;;6.82;;
28459;SDS011;32528;45.712;9.192;2022-09-01T07:42:38;47.40;;;8.15;;
28459;SDS011;32528;45.712;9.192;2022-09-01T07:45:09;18.15;;;7.03;;
28459;SDS011;32528;45.712;9.192;2022-09-01T07:47:27;19.92;;;7.22;;
28459;SDS011;32528;45.712;9.192;2022-09-01T07:49:28;18.60;;;7.32;;
28459;SDS011;32528;45.712;9.192;2022-09-01T07:51:29;19.77;;;7.30;;
28459;SDS011;32528;45.712;9.192;2022-09-01T07:53:32;17.90;;;8.20;;
28459;SDS011;32528;45.712;9.192;2022-09-01T07:55:38;12.75;;;7.72;;
28459;SDS011;32528;45.712;9.192;2022-09-01T07:57:41;10.18;;;6.95;;
28459;SDS011;32528;45.712;9.192;2022-09-01T07:59:46;11.48;;;8.10;;
28459;SDS011;32528;45.712;9.192;2022-09-01T08:01:51;15.77;;;8.25;;
28459;SDS011;32528;45.712;9.192;2022-09-01T08:03:57;11.40;;;7.35;;
28459;SDS011;32528;45.712;9.192;2022-09-01T08:06:03;19.52;;;7.57;;
28459;SDS011;32528;45.712;9.192;2022-09-01T08:08:05;11.55;;;7.10;;
28459;SDS011;32528;45.712;9.192;2022-09-01T08:10:06;11.52;;;7.55;;
28459;SDS011;32528;45.712;9.192;2022-09-01T08:12:11;12.23;;;7.70;;
28459;SDS011;32528;45.712;9.192;2022-09-01T08:14:18;14.75;;;8.20;;
28459;SDS011;32528;45.712;9.192;2022-09-01T08:16:20;10.75;;;6.75;;
28459;SDS011;32528;45.712;9.192;2022-09-01T08:18:23;12.98;;;7.30;;
28459;SDS011;32528;45.712;9.192;2022-09-01T08:20:24;15.63;;;7.35;;
28459;SDS011;32528;45.712;9.192;2022-09-01T08:22:28;12.35;;;7.95;;
28459;SDS011;32528;45.712;9.192;2022-09-01T08:24:35;15.35;;;7.38;;
28459;SDS011;32528;45.712;9.192;2022-09-01T08:26:35;10.82;;;7.55;;
28459;SDS011;32528;45.712;9.192;2022-09-01T08:28:38;13.77;;;7.68;;
28459;SDS011;32528;45.712;9.192;2022-09-01T08:30:40;12.40;;;6.70;;
28459;SDS011;32528;45.712;9.192;2022-09-01T08:32:42;13.73;;;5.93;;
28459;SDS011;32528;45.712;9.192;2022-09-01T08:34:43;11.77;;;6.60;;
28459;SDS011;32528;45.712;9.192;2022-09-01T08:36:45;30.63;;;6.35;;
28459;SDS011;32528;45.712;9.192;2022-09-01T08:38:46;7.30;;;4.88;;
28459;SDS011;32528;45.712;9.192;2022-09-01T08:40:51;11.32;;;6.90;;
28459;SDS011;32528;45.712;9.192;2022-09-01T08:45:23;14.10;;;5.00;;
28459;SDS011;32528;45.712;9.192;2022-09-01T08:47:34;12.27;;;6.65;;
28459;SDS011;32528;45.712;9.192;2022-09-01T08:49:36;8.80;;;5.60;;
28459;SDS011;32528;45.712;9.192;2022-09-01T08:56:34;13.38;;;6.82;;
28459;SDS011;32528;45.712;9.192;2022-09-01T08:58:37;8.32;;;4.95;;
28459;SDS011;32528;45.712;9.192;2022-09-01T09:01:02;9.33;;;6.23;;
28459;SDS011;32528;45.712;9.192;2022-09-01T09:03:15;11.70;;;5.10;;
28459;SDS011;32528;45.712;9.192;2022-09-01T09:08:16;10.00;;;6.55;;
28459;SDS011;32528;45.712;9.192;2022-09-01T09:10:58;9.65;;;6.20;;
28459;SDS011;32528;45.712;9.192;2022-09-01T09:17:27;26.02;;;7.70;;
28459;SDS011;32528;45.712;9.192;2022-09-01T09:19:34;9.85;;;7.13;;
28459;SDS011;32528;45.712;9.192;2022-09-01T09:21:40;10.80;;;7.10;;
28459;SDS011;32528;45.712;9.192;2022-09-01T09:23:47;9.65;;;6.88;;
28459;SDS011;32528;45.712;9.192;2022-09-01T09:25:54;10.65;;;6.65;;
28459;SDS011;32528;45.712;9.192;2022-09-01T09:27:55;9.70;;;7.13;;
28459;SDS011;32528;45.712;9.192;2022-09-01T09:30:04;14.63;;;6.75;;
28459;SDS011;32528;45.712;9.192;2022-09-01T09:32:08;10.80;;;7.10;;
28459;SDS011;32528;45.712;9.192;2022-09-01T09:34:16;14.43;;;6.95;;
28459;SDS011;32528;45.712;9.192;2022-09-01T09:36:30;15.48;;;7.22;;
28459;SDS011;32528;45.712;9.192;2022-09-01T09:38:34;14.13;;;6.47;;
28459;SDS011;32528;45.712;9.192;2022-09-01T09:40:34;11.45;;;5.57;;
28459;SDS011;32528;45.712;9.192;2022-09-01T09:42:36;10.95;;;6.35;;
28459;SDS011;32528;45.712;9.192;2022-09-01T09:44:43;10.48;;;5.68;;
28459;SDS011;32528;45.712;9.192;2022-09-01T09:46:47;12.10;;;6.35;;
28459;SDS011;32528;45.712;9.192;2022-09-01T09:48:49;14.00;;;6.15;;
28459;SDS011;32528;45.712;9.192;2022-09-01T09:51:15;8.88;;;5.63;;
28459;SDS011;32528;45.712;9.192;2022-09-01T09:53:26;15.15;;;7.35;;
28459;SDS011;32528;45.712;9.192;2022-09-01T09:55:31;11.95;;;6.30;;
28459;SDS011;32528;45.712;9.192;2022-09-01T09:57:32;9.30;;;5.00;;
28459;SDS011;32528;45.712;9.192;2022-09-01T10:01:46;9.77;;;5.95;;
28459;SDS011;32528;45.712;9.192;2022-09-01T10:03:53;6.97;;;4.38;;
28459;SDS011;32528;45.712;9.192;2022-09-01T10:05:56;8.32;;;5.35;;
28459;SDS011;32528;45.712;9.192;2022-09-01T10:07:57;9.45;;;6.22;;
28459;SDS011;32528;45.712;9.192;2022-09-01T10:09:59;8.30;;;4.45;;
28459;SDS011;32528;45.712;9.192;2022-09-01T10:12:07;11.73;;;3.40;;
28459;SDS011;32528;45.712;9.192;2022-09-01T10:14:14;7.85;;;3.13;;
28459;SDS011;32528;45.712;9.192;2022-09-01T10:16:21;7.85;;;3.35;;
28459;SDS011;32528;45.712;9.192;2022-09-01T10:18:31;10.25;;;4.25;;
28459;SDS011;32528;45.712;9.192;2022-09-01T10:20:40;10.18;;;5.13;;
28459;SDS011;32528;45.712;9.192;2022-09-01T10:22:48;7.97;;;5.00;;
28459;SDS011;32528;45.712;9.192;2022-09-01T10:24:50;12.77;;;4.25;;
28459;SDS011;32528;45.712;9.192;2022-09-01T10:26:52;11.60;;;5.20;;
28459;SDS011;32528;45.712;9.192;2022-09-01T10:29:00;8.73;;;3.40;;
28459;SDS011;32528;45.712;9.192;2022-09-01T10:31:12;7.22;;;5.07;;
28459;SDS011;32528;45.712;9.192;2022-09-01T10:33:15;5.82;;;3.53;;
28459;SDS011;32528;45.712;9.192;2022-09-01T10:35:18;5.28;;;3.08;;
28459;SDS011;32528;45.712;9.192;2022-09-01T10:37:27;5.78;;;2.80;;
28459;SDS011;32528;45.712;9.192;2022-09-01T10:39:28;5.93;;;3.28;;
28459;SDS011;32528;45.712;9.192;2022-09-01T10:45:50;8.75;;;4.45;;
28459;SDS011;32528;45.712;9.192;2022-09-01T10:47:51;14.30;;;5.35;;
28459;SDS011;32528;45.712;9.192;2022-09-01T10:51:53;8.18;;;4.70;;
28459;SDS011;32528;45.712;9.192;2022-09-01T10:53:55;11.40;;;6.03;;
28459;SDS011;32528;45.712;9.192;2022-09-01T11:02:30;9.20;;;6.22;;
28459;SDS011;32528;45.712;9.192;2022-09-01T11:09:36;13.65;;;5.82;;
28459;SDS011;32528;45.712;9.192;2022-09-01T11:13:55;12.48;;;6.70;;
28459;SDS011;32528;45.712;9.192;2022-09-01T11:18:37;8.43;;;6.03;;
28459;SDS011;32528;45.712;9.192;2022-09-01T11:20:39;12.13;;;6.05;;
28459;SDS011;32528;45.712;9.192;2022-09-01T11:22:44;9.27;;;6.45;;
28459;SDS011;32528;45.712;9.192;2022-09-01T11:27:08;9.15;;;6.20;;
28459;SDS011;32528;45.712;9.192;2022-09-01T11:34:10;15.13;;;8.77;;
28459;SDS011;32528;45.712;9.192;2022-09-01T11:36:26;13.38;;;9.05;;
28459;SDS011;32528;45.712;9.192;2022-09-01T11:40:54;10.32;;;6.60;;
28459;SDS011;32528;45.712;9.192;2022-09-01T11:42:56;12.73;;;6.43;;
28459;SDS011;32528;45.712;9.192;2022-09-01T11:45:02;10.40;;;6.13;;
28459;SDS011;32528;45.712;9.192;2022-09-01T11:47:12;12.85;;;7.80;;
28459;SDS011;32528;45.712;9.192;2022-09-01T11:49:23;11.65;;;7.07;;
28459;SDS011;32528;45.712;9.192;2022-09-01T11:51:36;12.23;;;6.68;;
28459;SDS011;32528;45.712;9.192;2022-09-01T11:53:43;11.07;;;6.47;;
28459;SDS011;32528;45.712;9.192;2022-09-01T11:55:44;11.57;;;7.68;;
28459;SDS011;32528;45.712;9.192;2022-09-01T11:57:50;11.10;;;6.35;;
28459;SDS011;32528;45.712;9.192;2022-09-01T11:59:51;13.02;;;7.15;;
28459;SDS011;32528;45.712;9.192;2022-09-01T12:01:56;12.63;;;6.93;;
28459;SDS011;32528;45.712;9.192;2022-09-01T12:04:06;12.48;;;6.60;;
28459;SDS011;32528;45.712;9.192;2022-09-01T12:06:23;10.45;;;6.13;;
28459;SDS011;32528;45.712;9.192;2022-09-01T12:08:26;11.43;;;6.55;;
28459;SDS011;32528;45.712;9.192;2022-09-01T12:10:32;10.35;;;6.68;;
28459;SDS011;32528;45.712;9.192;2022-09-01T12:12:38;13.70;;;6.95;;
28459;SDS011;32528;45.712;9.192;2022-09-01T12:14:39;10.73;;;5.57;;
28459;SDS011;32528;45.712;9.192;2022-09-01T12:16:39;9.32;;;5.78;;
28459;SDS011;32528;45.712;9.192;2022-09-01T12:18:44;14.77;;;6.40;;
28459;SDS011;32528;45.712;9.192;2022-09-01T12:20:47;10.25;;;6.78;;
28459;SDS011;32528;45.712;9.192;2022-09-01T12:22:49;18.17;;;7.22;;
28459;SDS011;32528;45.712;9.192;2022-09-01T12:24:51;7.53;;;4.00;;
28459;SDS011;32528;45.712;9.192;2022-09-01T12:26:54;12.27;;;4.20;;
28459;SDS011;32528;45.712;9.192;2022-09-01T12:28:58;15.75;;;7.32;;
28459;SDS011;32528;45.712;9.192;2022-09-01T12:30:59;10.48;;;6.65;;
28459;SDS011;32528;45.712;9.192;2022-09-01T12:33:03;11.45;;;7.97;;
28459;SDS011;32528;45.712;9.192;2022-09-01T12:35:12;11.40;;;5.82;;
28459;SDS011;32528;45.712;9.192;2022-09-01T12:37:25;6.68;;;3.80;;
28459;SDS011;32528;45.712;9.192;2022-09-01T12:39:31;6.90;;;3.90;;
28459;SDS011;32528;45.712;9.192;2022-09-01T12:41:37;17.30;;;6.30;;
28459;SDS011;32528;45.712;9.192;2022-09-01T12:43:39;16.55;;;7.03;;
28459;SDS011;32528;45.712;9.192;2022-09-01T12:45:45;10.82;;;6.75;;
28459;SDS011;32528;45.712;9.192;2022-09-01T12:47:47;9.35;;;5.70;;
28459;SDS011;32528;45.712;9.192;2022-09-01T12:49:49;8.25;;;4.68;;
28459;SDS011;32528;45.712;9.192;2022-09-01T12:52:04;9.07;;;4.97;;
28459;SDS011;32528;45.712;9.192;2022-09-01T12:54:26;7.95;;;4.50;;
28459;SDS011;32528;45.712;9.192;2022-09-01T12:56:31;8.38;;;3.92;;
28459;SDS011;32528;45.712;9.192;2022-09-01T13:07:20;7.38;;;5.10;;
28459;SDS011;32528;45.712;9.192;2022-09-01T13:09:21;9.18;;;4.75;;
28459;SDS011;32528;45.712;9.192;2022-09-01T13:11:22;7.50;;;4.28;;
28459;SDS011;32528;45.712;9.192;2022-09-01T13:13:24;7.18;;;4.30;;
28459;SDS011;32528;45.712;9.192;2022-09-01T13:15:26;11.07;;;5.55;;
28459;SDS011;32528;45.712;9.192;2022-09-01T13:17:27;7.30;;;4.72;;
28459;SDS011;32528;45.712;9.192;2022-09-01T13:19:29;7.82;;;4.72;;
28459;SDS011;32528;45.712;9.192;2022-09-01T13:21:30;10.15;;;4.80;;
28459;SDS011;32528;45.712;9.192;2022-09-01T13:23:31;10.20;;;4.20;;
28459;SDS011;32528;45.712;9.192;2022-09-01T13:25:32;7.85;;;3.55;;
28459;SDS011;32528;45.712;9.192;2022-09-01T13:27:34;6.72;;;3.95;;
28459;SDS011;32528;45.712;9.192;2022-09-01T13:29:36;6.38;;;3.78;;
28459;SDS011;32528;45.712;9.192;2022-09-01T13:31:37;9.52;;;4.22;;
28459;SDS011;32528;45.712;9.192;2022-09-01T13:33:37;7.97;;;4.05;;
28459;SDS011;32528;45.712;9.192;2022-09-01T13:35:38;7.15;;;4.03;;